createdAt,value
2022-07-26T00:01:40.202Z,19.50
2022-07-26T00:04:07.848Z,19.50
2022-07-26T00:06:34.724Z,19.40
2022-07-26T00:09:01.568Z,19.50
2022-07-26T00:11:30.431Z,19.50
2022-07-26T00:13:57.289Z,19.50
2022-07-26T00:16:24.284Z,19.50
2022-07-26T00:18:51.541Z,19.60
2022-07-26T00:21:18.641Z,19.40
2022-07-26T00:23:45.676Z,19.60
2022-07-26T00:26:12.621Z,19.60
2022-07-26T00:28:41.264Z,19.60
2022-07-26T00:31:08.927Z,19.80
2022-07-26T00:33:35.842Z,19.90
2022-07-26T00:36:02.658Z,19.70
2022-07-26T00:38:30.024Z,19.60
2022-07-26T00:40:57.409Z,19.60
2022-07-26T00:43:24.224Z,19.50
2022-07-26T00:45:51.367Z,19.60
2022-07-26T00:48:19.100Z,19.70
2022-07-26T00:50:46.589Z,19.80
2022-07-26T00:53:13.885Z,19.70
2022-07-26T00:55:41.011Z,19.80
2022-07-26T00:58:07.960Z,19.70
2022-07-26T01:00:35.215Z,19.70
2022-07-26T01:03:02.729Z,19.70
2022-07-26T01:05:29.805Z,19.60
2022-07-26T01:07:57.652Z,19.50
2022-07-26T01:10:24.696Z,19.40
2022-07-26T01:12:51.577Z,19.50
2022-07-26T01:15:19.323Z,19.50
2022-07-26T01:17:47.340Z,19.20
2022-07-26T01:20:15.228Z,19.30
2022-07-26T01:22:42.300Z,19.20
2022-07-26T01:25:09.982Z,19.30
2022-07-26T01:27:39.449Z,19.40
2022-07-26T01:30:14.407Z,19.30
2022-07-26T01:32:41.585Z,19.30
2022-07-26T01:35:09.323Z,19.20
2022-07-26T01:37:36.335Z,19.20
2022-07-26T01:40:04.698Z,19.40
2022-07-26T01:42:34.165Z,19.40
2022-07-26T01:45:01.163Z,19.40
2022-07-26T01:47:28.297Z,19.30
2022-07-26T01:49:55.319Z,19.40
2022-07-26T01:52:22.206Z,19.30
2022-07-26T01:54:49.325Z,19.30
2022-07-26T01:57:16.232Z,19.30
2022-07-26T01:59:43.347Z,19.10
2022-07-26T02:02:10.599Z,19.00
2022-07-26T02:04:56.045Z,19.10
2022-07-26T02:07:22.989Z,19.00
2022-07-26T02:09:50.033Z,19.10
2022-07-26T02:12:16.887Z,19.00
2022-07-26T02:14:43.777Z,19.10
2022-07-26T02:17:10.854Z,19.00
2022-07-26T02:19:37.944Z,19.00
2022-07-26T02:22:05.495Z,19.00
2022-07-26T02:24:33.228Z,19.10
2022-07-26T02:27:01.543Z,19.10
2022-07-26T02:29:29.551Z,19.10
2022-07-26T02:31:56.603Z,19.10
2022-07-26T02:34:24.143Z,18.90
2022-07-26T02:36:51.338Z,18.80
2022-07-26T02:39:18.807Z,19.00
2022-07-26T02:45:08.357Z,19.10
2022-07-26T02:47:35.370Z,18.90
2022-07-26T02:50:02.339Z,18.80
2022-07-26T02:52:29.331Z,18.70
2022-07-26T02:54:56.257Z,18.80
2022-07-26T02:57:23.069Z,18.80
2022-07-26T02:59:50.153Z,18.70
2022-07-26T03:02:16.966Z,18.80
2022-07-26T03:04:43.775Z,18.70
2022-07-26T03:07:10.934Z,18.80
2022-07-26T03:09:37.715Z,18.60
2022-07-26T03:12:04.601Z,18.60
2022-07-26T03:14:31.405Z,18.60
2022-07-26T03:16:58.324Z,18.70
2022-07-26T03:19:25.160Z,18.70
2022-07-26T03:21:52.039Z,18.70
2022-07-26T03:24:18.876Z,18.60
2022-07-26T03:26:45.753Z,18.50
2022-07-26T03:29:12.769Z,18.30
2022-07-26T03:31:39.690Z,18.40
2022-07-26T03:34:06.859Z,18.50
2022-07-26T03:36:33.934Z,18.50
2022-07-26T03:39:00.876Z,18.50
2022-07-26T03:41:27.864Z,18.50
2022-07-26T03:43:54.778Z,18.70
2022-07-26T03:46:21.915Z,18.70
2022-07-26T03:48:49.053Z,18.80
2022-07-26T03:51:16.028Z,18.80
2022-07-26T03:53:42.841Z,18.60
2022-07-26T03:56:28.664Z,18.50
2022-07-26T03:58:55.885Z,18.20
2022-07-26T04:01:22.719Z,18.10
2022-07-26T04:03:49.585Z,18.10
2022-07-26T04:06:17.245Z,18.00
2022-07-26T04:08:44.403Z,18.00
2022-07-26T04:11:11.613Z,17.90
2022-07-26T04:13:38.875Z,17.80
2022-07-26T04:16:06.294Z,18.00
2022-07-26T04:18:33.633Z,17.90
2022-07-26T04:21:00.881Z,17.70
2022-07-26T04:23:27.952Z,17.80
2022-07-26T04:25:54.837Z,18.00
2022-07-26T04:28:21.763Z,18.10
2022-07-26T04:30:48.755Z,18.20
2022-07-26T04:33:15.664Z,18.30
2022-07-26T04:35:42.582Z,18.20
2022-07-26T04:38:09.436Z,18.20
2022-07-26T04:40:40.510Z,18.30
2022-07-26T04:43:08.552Z,18.30
2022-07-26T04:45:37.391Z,18.50
2022-07-26T04:48:04.626Z,18.50
2022-07-26T04:50:31.578Z,18.40
2022-07-26T04:52:58.394Z,18.60
2022-07-26T04:55:25.361Z,18.80
2022-07-26T04:57:52.360Z,18.80
2022-07-26T05:00:23.383Z,18.90
2022-07-26T05:02:56.514Z,18.90
2022-07-26T05:05:25.928Z,18.90
2022-07-26T05:07:55.825Z,19.20
2022-07-26T05:10:28.753Z,19.00
2022-07-26T05:12:55.659Z,19.10
2022-07-26T05:15:22.602Z,19.00
2022-07-26T05:17:49.875Z,19.00
2022-07-26T05:20:17.504Z,19.20
2022-07-26T05:22:47.299Z,19.10
2022-07-26T05:25:14.327Z,19.30
2022-07-26T05:27:41.871Z,19.20
2022-07-26T05:30:10.034Z,19.30
2022-07-26T05:32:37.250Z,19.30
2022-07-26T05:35:04.973Z,19.30
2022-07-26T05:37:32.072Z,19.30
2022-07-26T05:39:59.222Z,19.60
2022-07-26T05:42:26.816Z,19.50
2022-07-26T05:44:57.488Z,19.30
2022-07-26T05:47:25.198Z,19.50
2022-07-26T05:49:52.076Z,19.30
2022-07-26T05:52:18.913Z,19.50
2022-07-26T05:54:45.962Z,19.60
2022-07-26T05:57:12.869Z,19.70
2022-07-26T05:59:39.881Z,19.70
2022-07-26T06:02:08.844Z,19.80
2022-07-26T06:04:36.119Z,19.80
2022-07-26T06:07:03.157Z,19.80
2022-07-26T06:09:30.385Z,19.70
2022-07-26T06:11:57.251Z,19.80
2022-07-26T06:14:24.710Z,19.90
2022-07-26T06:16:51.591Z,20.00
2022-07-26T06:19:18.638Z,20.10
2022-07-26T06:21:46.272Z,20.00
2022-07-26T06:24:13.515Z,19.90
2022-07-26T06:26:40.476Z,19.80
2022-07-26T06:29:07.344Z,19.90
2022-07-26T06:31:34.478Z,19.70
2022-07-26T06:34:01.565Z,19.70
2022-07-26T06:36:30.724Z,19.80
2022-07-26T06:38:58.524Z,19.90
2022-07-26T06:41:25.573Z,20.00
2022-07-26T06:43:54.049Z,20.20
2022-07-26T06:46:21.737Z,20.30
2022-07-26T06:48:52.842Z,20.30
2022-07-26T06:51:24.317Z,20.40
2022-07-26T06:53:51.852Z,20.40
2022-07-26T06:56:19.467Z,20.50
2022-07-26T06:58:46.612Z,20.50
2022-07-26T07:01:59.786Z,20.60
2022-07-26T07:04:01.154Z,20.60
2022-07-26T07:06:28.286Z,20.60
2022-07-26T07:08:55.333Z,20.70
2022-07-26T07:11:22.367Z,20.90
2022-07-26T07:13:49.682Z,21.00
2022-07-26T07:16:16.686Z,21.10
2022-07-26T07:18:43.683Z,21.00
2022-07-26T07:21:10.530Z,20.70
2022-07-26T07:23:37.520Z,20.90
2022-07-26T07:26:04.506Z,21.10
2022-07-26T07:28:33.874Z,21.30
2022-07-26T07:31:01.538Z,21.20
2022-07-26T07:33:32.227Z,20.70
2022-07-26T07:36:03.812Z,20.70
2022-07-26T07:38:33.230Z,21.00
2022-07-26T07:41:04.568Z,20.90
2022-07-26T07:43:32.072Z,20.80
2022-07-26T07:45:59.038Z,20.90
2022-07-26T07:48:29.097Z,21.10
2022-07-26T07:50:56.043Z,21.20
2022-07-26T07:53:23.271Z,21.30
2022-07-26T07:55:50.180Z,21.50
2022-07-26T07:58:22.652Z,21.60
2022-07-26T08:00:50.578Z,21.70
2022-07-26T08:03:19.255Z,21.90
2022-07-26T08:05:49.462Z,21.80
2022-07-26T08:08:17.754Z,21.90
2022-07-26T08:10:51.702Z,21.60
2022-07-26T08:13:21.198Z,21.70
2022-07-26T08:15:50.190Z,21.70
2022-07-26T08:18:17.417Z,21.80
2022-07-26T08:20:47.026Z,21.90
2022-07-26T08:23:14.613Z,22.10
2022-07-26T08:25:55.092Z,22.30
2022-07-26T08:28:46.378Z,22.20
2022-07-26T08:31:11.618Z,22.00
2022-07-26T08:33:40.780Z,22.10
2022-07-26T08:36:08.516Z,22.40
2022-07-26T08:38:35.324Z,22.60
2022-07-26T08:41:02.275Z,22.20
2022-07-26T08:43:30.615Z,22.60
2022-07-26T08:46:03.601Z,22.70
2022-07-26T08:48:30.688Z,22.60
2022-07-26T08:50:58.397Z,22.80
2022-07-26T08:53:25.518Z,23.00
2022-07-26T08:56:06.976Z,23.30
2022-07-26T08:58:36.327Z,23.40
2022-07-26T09:01:08.736Z,24.00
2022-07-26T09:03:39.124Z,24.50
2022-07-26T09:06:14.377Z,24.80
2022-07-26T09:08:41.708Z,25.10
2022-07-26T09:11:28.906Z,25.20
2022-07-26T09:13:58.847Z,25.60
2022-07-26T09:16:26.475Z,25.60
2022-07-26T09:18:54.282Z,25.70
2022-07-26T09:21:28.966Z,25.70
2022-07-26T09:23:57.077Z,24.60
2022-07-26T09:26:29.917Z,24.50
2022-07-26T09:29:12.152Z,23.90
2022-07-26T09:31:40.286Z,24.10
2022-07-26T09:34:08.320Z,24.60
2022-07-26T09:36:51.713Z,24.90
2022-07-26T09:39:22.833Z,25.10
2022-07-26T09:42:27.595Z,25.20
2022-07-26T09:44:59.341Z,24.60
2022-07-26T09:47:38.132Z,25.00
2022-07-26T09:50:14.220Z,25.40
2022-07-26T09:52:56.735Z,25.50
2022-07-26T09:55:23.888Z,25.40
2022-07-26T09:57:53.605Z,25.50
2022-07-26T10:00:20.671Z,25.40
2022-07-26T10:02:47.644Z,24.70
2022-07-26T10:05:14.513Z,24.20
2022-07-26T10:07:43.205Z,24.50
2022-07-26T10:10:15.368Z,24.80
2022-07-26T10:12:45.496Z,24.60
2022-07-26T10:15:38.471Z,24.60
2022-07-26T10:18:08.489Z,24.80
2022-07-26T10:20:53.620Z,24.70
2022-07-26T10:23:42.341Z,24.50
2022-07-26T10:26:32.041Z,24.40
2022-07-26T10:29:26.728Z,24.80
2022-07-26T10:32:05.514Z,24.70
2022-07-26T10:34:36.493Z,24.80
2022-07-26T10:37:06.628Z,25.20
2022-07-26T10:39:33.669Z,25.60
2022-07-26T10:42:08.897Z,26.20
2022-07-26T10:44:41.988Z,26.80
2022-07-26T10:47:09.062Z,26.90
2022-07-26T10:49:40.287Z,26.60
2022-07-26T10:52:20.942Z,26.10
2022-07-26T10:54:57.068Z,26.30
2022-07-26T10:57:32.737Z,26.30
2022-07-26T11:00:00.570Z,26.40
2022-07-26T11:02:32.382Z,26.70
2022-07-26T11:05:15.698Z,26.70
2022-07-26T11:07:56.076Z,26.90
2022-07-26T11:10:24.708Z,26.80
2022-07-26T11:13:04.102Z,26.90
2022-07-26T11:15:31.543Z,26.70
2022-07-26T11:18:21.368Z,26.60
2022-07-26T11:20:51.302Z,26.50
2022-07-26T11:23:27.707Z,26.60
2022-07-26T11:26:09.560Z,26.70
2022-07-26T11:28:53.028Z,26.70
2022-07-26T11:31:28.945Z,26.90
2022-07-26T11:34:26.312Z,26.70
2022-07-26T11:36:56.038Z,26.40
2022-07-26T11:39:34.501Z,26.20
2022-07-26T11:42:02.730Z,26.30
2022-07-26T11:44:30.965Z,26.40
2022-07-26T11:46:58.404Z,26.40
2022-07-26T11:49:51.676Z,26.50
2022-07-26T11:52:14.087Z,26.90
2022-07-26T11:54:52.926Z,27.20
2022-07-26T11:57:20.023Z,27.00
2022-07-26T11:59:48.494Z,27.00
2022-07-26T12:02:16.105Z,26.90
2022-07-26T12:04:44.800Z,27.10
2022-07-26T12:07:14.348Z,27.20
2022-07-26T12:09:52.219Z,27.40
2022-07-26T12:12:31.983Z,27.30
2022-07-26T12:15:02.735Z,27.20
2022-07-26T12:17:34.893Z,27.00
2022-07-26T12:20:17.864Z,26.80
2022-07-26T12:23:05.043Z,26.60
2022-07-26T12:25:32.339Z,26.40
2022-07-26T12:27:59.200Z,26.40
2022-07-26T12:30:30.673Z,26.10
2022-07-26T12:33:02.388Z,26.10
2022-07-26T12:35:33.540Z,26.10
2022-07-26T12:38:00.650Z,25.80
2022-07-26T12:40:30.648Z,25.90
2022-07-26T12:43:02.141Z,25.80
2022-07-26T12:45:30.328Z,25.80
2022-07-26T12:47:59.294Z,25.90
2022-07-26T12:50:27.635Z,25.60
2022-07-26T12:53:04.649Z,25.50
2022-07-26T12:55:31.843Z,25.50
2022-07-26T12:57:59.680Z,25.50
2022-07-26T13:00:29.613Z,25.20
2022-07-26T13:02:57.584Z,25.00
2022-07-26T13:05:25.128Z,24.70
2022-07-26T13:07:52.187Z,24.70
2022-07-26T13:10:36.003Z,24.50
2022-07-26T13:13:03.941Z,24.40
2022-07-26T13:15:36.248Z,24.70
2022-07-26T13:18:07.375Z,24.70
2022-07-26T13:20:37.081Z,24.70
2022-07-26T13:23:04.078Z,24.60
2022-07-26T13:25:38.295Z,24.40
2022-07-26T13:28:07.556Z,24.30
2022-07-26T13:30:35.886Z,24.40
2022-07-26T13:33:02.769Z,24.30
2022-07-26T13:35:32.244Z,24.30
2022-07-26T13:37:59.145Z,24.20
2022-07-26T13:40:31.252Z,24.10
2022-07-26T13:42:58.956Z,24.00
2022-07-26T13:45:29.273Z,23.90
2022-07-26T13:47:59.219Z,24.10
2022-07-26T13:50:27.626Z,24.20
2022-07-26T13:52:56.273Z,24.10
2022-07-26T13:55:23.443Z,24.30
2022-07-26T13:57:57.179Z,24.50
2022-07-26T14:00:26.991Z,24.70
2022-07-26T14:02:54.901Z,25.00
2022-07-26T14:05:22.305Z,25.20
2022-07-26T14:07:49.719Z,25.30
2022-07-26T14:10:16.760Z,25.40
2022-07-26T14:12:43.699Z,25.30
2022-07-26T14:15:15.169Z,25.40
2022-07-26T14:17:47.195Z,25.60
2022-07-26T14:20:14.841Z,25.80
2022-07-26T14:22:41.794Z,25.90
2022-07-26T14:25:09.297Z,26.20
2022-07-26T14:27:36.448Z,26.30
2022-07-26T14:30:05.251Z,26.40
2022-07-26T14:32:32.322Z,26.60
2022-07-26T14:34:59.224Z,27.20
2022-07-26T14:37:42.977Z,27.50
2022-07-26T14:40:13.648Z,28.00
2022-07-26T14:42:40.838Z,28.30
2022-07-26T14:45:09.888Z,28.80
2022-07-26T14:47:37.329Z,28.90
2022-07-26T14:50:07.245Z,29.00
2022-07-26T14:52:47.126Z,29.40
2022-07-26T14:55:18.201Z,29.70
2022-07-26T14:57:47.364Z,29.40
2022-07-26T15:00:16.828Z,28.90
2022-07-26T15:02:46.997Z,28.40
2022-07-26T15:05:15.229Z,28.50
2022-07-26T15:07:42.974Z,28.50
2022-07-26T15:10:12.012Z,28.40
2022-07-26T15:12:39.213Z,28.30
2022-07-26T15:15:07.520Z,27.90
2022-07-26T15:17:37.828Z,27.70
2022-07-26T15:20:05.899Z,27.20
2022-07-26T15:22:32.790Z,27.00
2022-07-26T15:24:59.740Z,26.80
2022-07-26T15:27:26.878Z,26.40
2022-07-26T15:29:55.439Z,26.40
2022-07-26T15:32:25.249Z,26.50
2022-07-26T15:34:52.125Z,26.70
2022-07-26T15:37:19.163Z,26.70
2022-07-26T15:39:45.986Z,26.50
2022-07-26T15:42:15.273Z,26.20
2022-07-26T15:44:42.448Z,26.00
2022-07-26T15:47:10.685Z,25.70
2022-07-26T15:49:40.200Z,25.60
2022-07-26T15:52:10.733Z,25.60
2022-07-26T15:54:37.872Z,25.40
2022-07-26T15:57:04.689Z,25.40
2022-07-26T15:59:31.590Z,25.60
2022-07-26T16:01:58.627Z,25.50
2022-07-26T16:04:25.650Z,25.50
2022-07-26T16:06:52.543Z,25.20
2022-07-26T16:09:19.993Z,25.50
2022-07-26T16:11:48.619Z,25.50
2022-07-26T16:14:16.764Z,25.50
2022-07-26T16:16:44.254Z,25.60
2022-07-26T16:19:11.540Z,25.70
2022-07-26T16:21:40.493Z,25.80
2022-07-26T16:24:08.061Z,25.80
2022-07-26T16:26:35.869Z,25.80
2022-07-26T16:29:03.935Z,25.90
2022-07-26T16:31:31.458Z,26.20
2022-07-26T16:33:58.479Z,26.50
2022-07-26T16:36:25.561Z,26.60
2022-07-26T16:38:52.450Z,26.70
2022-07-26T16:41:19.578Z,26.40
2022-07-26T16:43:47.482Z,26.40
2022-07-26T16:46:14.636Z,26.30
2022-07-26T16:48:41.583Z,26.20
2022-07-26T16:51:08.436Z,26.00
2022-07-26T16:53:35.438Z,25.70
2022-07-26T16:56:02.641Z,25.50
2022-07-26T16:58:29.605Z,25.30
2022-07-26T17:00:56.654Z,25.00
2022-07-26T17:03:23.865Z,24.90
2022-07-26T17:05:51.353Z,24.80
2022-07-26T17:08:18.918Z,25.00
2022-07-26T17:10:46.158Z,25.00
2022-07-26T17:13:13.041Z,25.00
2022-07-26T17:15:40.043Z,24.70
2022-07-26T17:18:06.855Z,24.40
2022-07-26T17:20:34.070Z,24.50
2022-07-26T17:23:01.032Z,24.60
2022-07-26T17:25:28.389Z,24.50
2022-07-26T17:27:55.406Z,24.50
2022-07-26T17:30:22.346Z,24.60
2022-07-26T17:32:49.350Z,24.30
2022-07-26T17:35:16.857Z,24.30
2022-07-26T17:37:43.815Z,24.10
2022-07-26T17:40:11.629Z,24.20
2022-07-26T17:42:39.146Z,24.20
2022-07-26T17:45:07.357Z,24.20
2022-07-26T17:47:34.402Z,23.90
2022-07-26T17:52:51.977Z,23.90
2022-07-26T17:55:19.355Z,23.70
2022-07-26T17:57:47.795Z,23.80
2022-07-26T18:00:16.851Z,23.60
2022-07-26T18:02:44.228Z,23.40
2022-07-26T18:05:11.586Z,23.40
2022-07-26T18:07:39.367Z,23.50
2022-07-26T18:10:06.803Z,23.50
2022-07-26T18:12:33.651Z,23.40
2022-07-26T18:15:00.473Z,23.30
2022-07-26T18:17:27.386Z,23.10
2022-07-26T18:19:54.225Z,23.10
2022-07-26T18:22:21.003Z,23.10
2022-07-26T18:24:48.104Z,23.00
2022-07-26T18:27:15.214Z,23.10
2022-07-26T18:29:42.249Z,23.00
2022-07-26T18:32:09.247Z,23.00
2022-07-26T18:34:36.113Z,23.10
2022-07-26T18:37:02.981Z,22.90
2022-07-26T18:39:32.812Z,22.80
2022-07-26T18:42:01.262Z,22.70
2022-07-26T18:44:28.631Z,22.90
2022-07-26T18:46:56.371Z,22.90
2022-07-26T18:49:30.862Z,22.80
2022-07-26T18:52:04.233Z,22.70
2022-07-26T18:54:36.149Z,22.80
2022-07-26T18:57:03.462Z,22.70
2022-07-26T18:59:31.204Z,22.60
2022-07-26T19:01:59.981Z,22.50
2022-07-26T19:04:28.022Z,22.30
2022-07-26T19:06:55.518Z,22.40
2022-07-26T19:09:22.863Z,22.40
2022-07-26T19:11:50.095Z,22.30
2022-07-26T19:14:17.320Z,22.20
2022-07-26T19:16:44.421Z,22.30
2022-07-26T19:19:11.770Z,22.20
2022-07-26T19:21:40.921Z,22.10
2022-07-26T19:24:08.013Z,21.90
2022-07-26T19:26:36.125Z,21.90
2022-07-26T19:29:03.244Z,22.00
2022-07-26T19:31:30.379Z,21.90
2022-07-26T19:33:57.452Z,21.90
2022-07-26T19:36:25.875Z,21.70
2022-07-26T19:38:57.651Z,21.60
2022-07-26T19:41:25.159Z,21.70
2022-07-26T19:43:55.111Z,21.80
2022-07-26T19:46:22.211Z,21.50
2022-07-26T19:48:49.761Z,21.50
2022-07-26T19:51:16.848Z,21.60
2022-07-26T19:53:45.979Z,21.60
2022-07-26T19:56:13.168Z,21.60
2022-07-26T19:58:40.068Z,21.60
2022-07-26T20:01:07.091Z,21.60
2022-07-26T20:03:34.069Z,21.60
2022-07-26T20:06:01.663Z,21.60
2022-07-26T20:08:28.607Z,21.40
2022-07-26T20:10:55.507Z,21.40
2022-07-26T20:13:22.478Z,21.40
2022-07-26T20:15:49.403Z,21.30
2022-07-26T20:18:19.009Z,21.30
2022-07-26T20:20:46.037Z,21.20
2022-07-26T20:23:13.053Z,21.10
2022-07-26T20:25:40.453Z,20.90
2022-07-26T20:28:07.504Z,20.90
2022-07-26T20:30:34.412Z,20.90
2022-07-26T20:33:01.264Z,20.90
2022-07-26T20:35:29.103Z,20.90
2022-07-26T20:37:56.043Z,20.80
2022-07-26T20:40:22.902Z,20.80
2022-07-26T20:42:50.229Z,20.80
2022-07-26T20:45:18.895Z,20.70
2022-07-26T20:47:45.875Z,20.70
2022-07-26T20:50:13.172Z,20.70
2022-07-26T20:52:40.205Z,20.60
2022-07-26T20:55:07.721Z,20.70
2022-07-26T20:57:35.050Z,20.70
2022-07-26T21:00:02.309Z,20.50
2022-07-26T21:02:29.268Z,20.60
2022-07-26T21:04:56.175Z,20.60
2022-07-26T21:07:24.267Z,20.70
2022-07-26T21:10:11.824Z,20.60
2022-07-26T21:12:38.570Z,20.30
2022-07-26T21:15:06.120Z,20.20
2022-07-26T21:17:34.798Z,20.10
2022-07-26T21:20:02.928Z,20.10
2022-07-26T21:22:29.904Z,20.10
2022-07-26T21:24:57.165Z,20.00
2022-07-26T21:27:23.974Z,20.10
2022-07-26T21:29:50.844Z,20.20
2022-07-26T21:32:17.701Z,20.30
2022-07-26T21:34:44.656Z,20.30
2022-07-26T21:37:11.554Z,20.20
2022-07-26T21:39:38.443Z,20.30
2022-07-26T21:42:05.359Z,20.30
2022-07-26T21:44:32.728Z,20.20
2022-07-26T21:46:59.919Z,20.20
2022-07-26T21:49:26.960Z,20.30
2022-07-26T21:51:53.927Z,20.20
2022-07-26T21:54:21.026Z,20.10
2022-07-26T21:56:47.812Z,20.00
2022-07-26T21:59:15.189Z,20.10
2022-07-26T22:01:42.533Z,20.10
2022-07-26T22:04:10.251Z,20.10
2022-07-26T22:06:37.811Z,20.00
2022-07-26T22:09:05.332Z,20.00
2022-07-26T22:11:32.289Z,20.00
2022-07-26T22:13:59.089Z,19.90
2022-07-26T22:16:26.193Z,19.90
2022-07-26T22:18:53.199Z,20.00
2022-07-26T22:21:20.186Z,19.90
2022-07-26T22:23:48.243Z,19.90
2022-07-26T22:26:16.019Z,19.70
2022-07-26T22:28:42.947Z,19.80
2022-07-26T22:31:09.818Z,19.70
2022-07-26T22:33:36.792Z,19.60
2022-07-26T22:36:04.137Z,19.50
2022-07-26T22:38:31.461Z,19.50
2022-07-26T22:40:59.895Z,19.40
2022-07-26T22:43:26.780Z,19.40
2022-07-26T22:45:53.679Z,19.40
2022-07-26T22:48:20.717Z,19.40
2022-07-26T22:50:47.692Z,19.40
2022-07-26T22:53:14.559Z,19.20
2022-07-26T22:55:41.528Z,19.20
2022-07-26T22:58:08.594Z,19.30
2022-07-26T23:00:35.683Z,19.20
2022-07-26T23:03:02.819Z,19.40
2022-07-26T23:05:46.213Z,19.40
2022-07-26T23:08:45.100Z,19.30
2022-07-26T23:11:01.967Z,19.30
2022-07-26T23:13:28.824Z,19.20
2022-07-26T23:16:00.560Z,19.10
2022-07-26T23:18:28.064Z,19.20
2022-07-26T23:20:54.909Z,19.20
2022-07-26T23:23:21.674Z,19.20
2022-07-26T23:25:51.180Z,19.20
2022-07-26T23:28:35.192Z,19.00
2022-07-26T23:31:03.455Z,19.00
2022-07-26T23:33:51.612Z,19.20
2022-07-26T23:36:17.298Z,19.30
2022-07-26T23:38:44.198Z,19.20
2022-07-26T23:41:11.309Z,19.20
2022-07-26T23:43:38.572Z,19.00
2022-07-26T23:46:06.401Z,19.10
2022-07-26T23:48:33.286Z,19.10
2022-07-26T23:51:00.104Z,18.90
2022-07-26T23:53:27.353Z,18.90
2022-07-26T23:55:54.795Z,18.80
2022-07-26T23:58:21.603Z,18.90
